sensor_id;sensor_type;location;lat;lon;timestamp;P1;durP1;ratioP1;P2;durP2;ratioP2
4313;SDS011;2170;48.794;9.182;2023-03-01T00:02:20;21.90;;;17.40;;
4313;SDS011;2170;48.794;9.182;2023-03-01T00:04:47;23.40;;;16.23;;
4313;SDS011;2170;48.794;9.182;2023-03-01T00:07:14;19.40;;;17.23;;
4313;SDS011;2170;48.794;9.182;2023-03-01T00:09:43;18.67;;;16.40;;
4313;SDS011;2170;48.794;9.182;2023-03-01T00:12:10;21.07;;;17.10;;
4313;SDS011;2170;48.794;9.182;2023-03-01T00:14:38;19.53;;;17.20;;
4313;SDS011;2170;48.794;9.182;2023-03-01T00:17:05;24.23;;;17.27;;
4313;SDS011;2170;48.794;9.182;2023-03-01T00:19:32;19.30;;;16.17;;
4313;SDS011;2170;48.794;9.182;2023-03-01T00:21:59;21.77;;;17.63;;
4313;SDS011;2170;48.794;9.182;2023-03-01T00:24:26;20.70;;;16.83;;
4313;SDS011;2170;48.794;9.182;2023-03-01T00:26:54;22.53;;;16.90;;
4313;SDS011;2170;48.794;9.182;2023-03-01T00:29:22;23.57;;;18.13;;
4313;SDS011;2170;48.794;9.182;2023-03-01T00:31:49;21.30;;;16.23;;
4313;SDS011;2170;48.794;9.182;2023-03-01T00:34:16;20.77;;;17.57;;
4313;SDS011;2170;48.794;9.182;2023-03-01T00:36:43;21.40;;;17.47;;
4313;SDS011;2170;48.794;9.182;2023-03-01T00:39:11;20.63;;;18.23;;
4313;SDS011;2170;48.794;9.182;2023-03-01T00:41:38;21.87;;;17.73;;
4313;SDS011;2170;48.794;9.182;2023-03-01T00:44:07;20.77;;;17.27;;
4313;SDS011;2170;48.794;9.182;2023-03-01T00:46:34;22.57;;;16.80;;
4313;SDS011;2170;48.794;9.182;2023-03-01T00:49:01;22.33;;;18.03;;
4313;SDS011;2170;48.794;9.182;2023-03-01T00:51:29;21.33;;;17.70;;
4313;SDS011;2170;48.794;9.182;2023-03-01T00:53:57;22.80;;;18.10;;
4313;SDS011;2170;48.794;9.182;2023-03-01T00:56:25;24.00;;;17.93;;
4313;SDS011;2170;48.794;9.182;2023-03-01T00:58:52;23.97;;;17.87;;
4313;SDS011;2170;48.794;9.182;2023-03-01T01:01:21;20.23;;;17.47;;
4313;SDS011;2170;48.794;9.182;2023-03-01T01:03:49;20.30;;;17.60;;
4313;SDS011;2170;48.794;9.182;2023-03-01T01:06:18;23.43;;;18.00;;
4313;SDS011;2170;48.794;9.182;2023-03-01T01:08:45;25.47;;;18.23;;
4313;SDS011;2170;48.794;9.182;2023-03-01T01:11:13;21.90;;;18.83;;
4313;SDS011;2170;48.794;9.182;2023-03-01T01:13:40;24.53;;;17.67;;
4313;SDS011;2170;48.794;9.182;2023-03-01T01:16:07;21.87;;;17.60;;
4313;SDS011;2170;48.794;9.182;2023-03-01T01:18:36;23.53;;;17.30;;
4313;SDS011;2170;48.794;9.182;2023-03-01T01:21:03;22.13;;;17.70;;
4313;SDS011;2170;48.794;9.182;2023-03-01T01:23:30;28.60;;;18.27;;
4313;SDS011;2170;48.794;9.182;2023-03-01T01:26:02;25.37;;;17.90;;
4313;SDS011;2170;48.794;9.182;2023-03-01T01:28:30;20.87;;;17.67;;
4313;SDS011;2170;48.794;9.182;2023-03-01T01:30:57;20.73;;;17.93;;
4313;SDS011;2170;48.794;9.182;2023-03-01T01:33:24;22.57;;;17.37;;
4313;SDS011;2170;48.794;9.182;2023-03-01T01:35:53;20.30;;;16.90;;
4313;SDS011;2170;48.794;9.182;2023-03-01T01:38:20;22.23;;;17.40;;
4313;SDS011;2170;48.794;9.182;2023-03-01T01:40:47;22.07;;;17.87;;
4313;SDS011;2170;48.794;9.182;2023-03-01T01:43:16;21.20;;;17.03;;
4313;SDS011;2170;48.794;9.182;2023-03-01T01:45:45;21.67;;;18.47;;
4313;SDS011;2170;48.794;9.182;2023-03-01T01:48:12;24.10;;;18.67;;
4313;SDS011;2170;48.794;9.182;2023-03-01T01:50:41;20.80;;;16.77;;
4313;SDS011;2170;48.794;9.182;2023-03-01T01:53:11;21.27;;;16.97;;
4313;SDS011;2170;48.794;9.182;2023-03-01T01:55:39;22.00;;;17.70;;
4313;SDS011;2170;48.794;9.182;2023-03-01T01:58:08;22.37;;;18.33;;
4313;SDS011;2170;48.794;9.182;2023-03-01T02:00:36;22.67;;;17.27;;
4313;SDS011;2170;48.794;9.182;2023-03-01T02:03:04;23.83;;;18.37;;
4313;SDS011;2170;48.794;9.182;2023-03-01T02:05:34;27.03;;;19.77;;
4313;SDS011;2170;48.794;9.182;2023-03-01T02:08:03;24.97;;;18.83;;
4313;SDS011;2170;48.794;9.182;2023-03-01T02:10:33;24.53;;;19.17;;
4313;SDS011;2170;48.794;9.182;2023-03-01T02:13:01;25.20;;;18.80;;
4313;SDS011;2170;48.794;9.182;2023-03-01T02:15:31;23.30;;;17.97;;
4313;SDS011;2170;48.794;9.182;2023-03-01T02:17:58;21.27;;;17.73;;
4313;SDS011;2170;48.794;9.182;2023-03-01T02:20:26;22.17;;;18.37;;
4313;SDS011;2170;48.794;9.182;2023-03-01T02:22:55;24.57;;;18.37;;
4313;SDS011;2170;48.794;9.182;2023-03-01T02:25:32;21.93;;;18.10;;
4313;SDS011;2170;48.794;9.182;2023-03-01T02:28:02;21.63;;;17.67;;
4313;SDS011;2170;48.794;9.182;2023-03-01T02:30:34;21.77;;;17.63;;
4313;SDS011;2170;48.794;9.182;2023-03-01T02:33:02;21.37;;;18.10;;
4313;SDS011;2170;48.794;9.182;2023-03-01T02:35:29;22.87;;;17.93;;
4313;SDS011;2170;48.794;9.182;2023-03-01T02:37:57;23.80;;;18.07;;
4313;SDS011;2170;48.794;9.182;2023-03-01T02:40:25;24.37;;;18.17;;
4313;SDS011;2170;48.794;9.182;2023-03-01T02:42:55;25.97;;;19.27;;
4313;SDS011;2170;48.794;9.182;2023-03-01T02:45:23;23.80;;;19.10;;
4313;SDS011;2170;48.794;9.182;2023-03-01T02:47:52;29.63;;;20.33;;
4313;SDS011;2170;48.794;9.182;2023-03-01T02:50:23;25.63;;;19.47;;
4313;SDS011;2170;48.794;9.182;2023-03-01T02:52:53;23.67;;;18.40;;
4313;SDS011;2170;48.794;9.182;2023-03-01T02:55:24;24.33;;;17.83;;
4313;SDS011;2170;48.794;9.182;2023-03-01T02:57:52;26.57;;;18.30;;
4313;SDS011;2170;48.794;9.182;2023-03-01T03:00:20;28.43;;;19.20;;
4313;SDS011;2170;48.794;9.182;2023-03-01T03:02:48;24.17;;;19.13;;
4313;SDS011;2170;48.794;9.182;2023-03-01T03:05:17;27.00;;;19.50;;
4313;SDS011;2170;48.794;9.182;2023-03-01T03:07:46;24.17;;;20.30;;
4313;SDS011;2170;48.794;9.182;2023-03-01T03:10:14;22.43;;;18.80;;
4313;SDS011;2170;48.794;9.182;2023-03-01T03:12:41;24.03;;;18.03;;
4313;SDS011;2170;48.794;9.182;2023-03-01T03:15:09;24.00;;;19.00;;
4313;SDS011;2170;48.794;9.182;2023-03-01T03:17:38;25.23;;;19.20;;
4313;SDS011;2170;48.794;9.182;2023-03-01T03:20:05;24.67;;;19.33;;
4313;SDS011;2170;48.794;9.182;2023-03-01T03:22:37;22.90;;;17.97;;
4313;SDS011;2170;48.794;9.182;2023-03-01T03:25:04;27.97;;;18.73;;
4313;SDS011;2170;48.794;9.182;2023-03-01T03:27:35;22.43;;;18.30;;
4313;SDS011;2170;48.794;9.182;2023-03-01T03:30:03;24.73;;;18.57;;
4313;SDS011;2170;48.794;9.182;2023-03-01T03:32:33;25.20;;;19.40;;
4313;SDS011;2170;48.794;9.182;2023-03-01T03:35:00;24.73;;;18.20;;
4313;SDS011;2170;48.794;9.182;2023-03-01T03:37:33;22.97;;;18.80;;
4313;SDS011;2170;48.794;9.182;2023-03-01T03:40:19;25.90;;;21.57;;
4313;SDS011;2170;48.794;9.182;2023-03-01T03:42:46;26.50;;;19.77;;
4313;SDS011;2170;48.794;9.182;2023-03-01T03:45:14;25.63;;;19.20;;
4313;SDS011;2170;48.794;9.182;2023-03-01T03:47:41;24.63;;;19.57;;
4313;SDS011;2170;48.794;9.182;2023-03-01T03:50:08;23.90;;;19.67;;
4313;SDS011;2170;48.794;9.182;2023-03-01T03:52:36;27.10;;;20.10;;
4313;SDS011;2170;48.794;9.182;2023-03-01T03:55:03;25.00;;;18.67;;
4313;SDS011;2170;48.794;9.182;2023-03-01T03:57:35;32.17;;;20.83;;
4313;SDS011;2170;48.794;9.182;2023-03-01T04:00:03;23.87;;;18.43;;
4313;SDS011;2170;48.794;9.182;2023-03-01T04:02:30;26.10;;;19.53;;
4313;SDS011;2170;48.794;9.182;2023-03-01T04:04:57;25.70;;;20.33;;
4313;SDS011;2170;48.794;9.182;2023-03-01T04:07:24;23.70;;;19.00;;
4313;SDS011;2170;48.794;9.182;2023-03-01T04:09:51;27.63;;;21.63;;
4313;SDS011;2170;48.794;9.182;2023-03-01T04:12:18;25.57;;;20.73;;
4313;SDS011;2170;48.794;9.182;2023-03-01T04:14:49;25.07;;;19.70;;
4313;SDS011;2170;48.794;9.182;2023-03-01T04:17:16;24.10;;;19.90;;
4313;SDS011;2170;48.794;9.182;2023-03-01T04:19:44;24.60;;;19.50;;
4313;SDS011;2170;48.794;9.182;2023-03-01T04:22:13;22.90;;;18.33;;
4313;SDS011;2170;48.794;9.182;2023-03-01T04:24:42;29.87;;;20.57;;
4313;SDS011;2170;48.794;9.182;2023-03-01T04:27:09;26.87;;;20.03;;
4313;SDS011;2170;48.794;9.182;2023-03-01T04:29:37;26.23;;;19.70;;
4313;SDS011;2170;48.794;9.182;2023-03-01T04:32:05;25.80;;;18.27;;
4313;SDS011;2170;48.794;9.182;2023-03-01T04:34:33;24.03;;;19.33;;
4313;SDS011;2170;48.794;9.182;2023-03-01T04:37:00;24.70;;;19.30;;
4313;SDS011;2170;48.794;9.182;2023-03-01T04:39:27;26.53;;;21.23;;
4313;SDS011;2170;48.794;9.182;2023-03-01T04:41:54;25.53;;;20.47;;
4313;SDS011;2170;48.794;9.182;2023-03-01T04:44:22;28.40;;;19.20;;
4313;SDS011;2170;48.794;9.182;2023-03-01T04:46:49;28.90;;;19.97;;
4313;SDS011;2170;48.794;9.182;2023-03-01T04:49:17;29.80;;;20.87;;
4313;SDS011;2170;48.794;9.182;2023-03-01T04:51:44;24.20;;;19.20;;
4313;SDS011;2170;48.794;9.182;2023-03-01T04:54:11;24.90;;;20.33;;
4313;SDS011;2170;48.794;9.182;2023-03-01T04:56:38;25.83;;;20.47;;
4313;SDS011;2170;48.794;9.182;2023-03-01T04:59:05;26.07;;;20.03;;
4313;SDS011;2170;48.794;9.182;2023-03-01T05:01:35;26.50;;;20.33;;
4313;SDS011;2170;48.794;9.182;2023-03-01T05:04:02;28.50;;;20.23;;
4313;SDS011;2170;48.794;9.182;2023-03-01T05:06:31;25.27;;;19.40;;
4313;SDS011;2170;48.794;9.182;2023-03-01T05:08:58;27.83;;;22.07;;
4313;SDS011;2170;48.794;9.182;2023-03-01T05:11:26;26.00;;;20.13;;
4313;SDS011;2170;48.794;9.182;2023-03-01T05:13:58;24.70;;;20.47;;
4313;SDS011;2170;48.794;9.182;2023-03-01T05:16:25;23.73;;;20.10;;
4313;SDS011;2170;48.794;9.182;2023-03-01T05:18:52;28.23;;;20.40;;
4313;SDS011;2170;48.794;9.182;2023-03-01T05:21:20;21.97;;;19.20;;
4313;SDS011;2170;48.794;9.182;2023-03-01T05:23:49;28.00;;;21.10;;
4313;SDS011;2170;48.794;9.182;2023-03-01T05:26:16;25.23;;;19.30;;
4313;SDS011;2170;48.794;9.182;2023-03-01T05:28:44;29.00;;;20.70;;
4313;SDS011;2170;48.794;9.182;2023-03-01T05:31:11;28.40;;;20.50;;
4313;SDS011;2170;48.794;9.182;2023-03-01T05:33:39;24.47;;;19.57;;
4313;SDS011;2170;48.794;9.182;2023-03-01T05:36:06;26.90;;;20.33;;
4313;SDS011;2170;48.794;9.182;2023-03-01T05:38:34;26.03;;;19.93;;
4313;SDS011;2170;48.794;9.182;2023-03-01T05:41:03;26.47;;;19.87;;
4313;SDS011;2170;48.794;9.182;2023-03-01T05:43:30;28.03;;;21.37;;
4313;SDS011;2170;48.794;9.182;2023-03-01T05:45:58;26.20;;;19.53;;
4313;SDS011;2170;48.794;9.182;2023-03-01T05:48:26;24.57;;;19.60;;
4313;SDS011;2170;48.794;9.182;2023-03-01T05:50:53;27.07;;;19.87;;
4313;SDS011;2170;48.794;9.182;2023-03-01T05:53:20;26.83;;;19.63;;
4313;SDS011;2170;48.794;9.182;2023-03-01T05:55:47;25.07;;;19.87;;
4313;SDS011;2170;48.794;9.182;2023-03-01T05:58:16;25.87;;;20.67;;
4313;SDS011;2170;48.794;9.182;2023-03-01T06:00:44;28.53;;;20.00;;
4313;SDS011;2170;48.794;9.182;2023-03-01T06:03:13;26.57;;;20.57;;
4313;SDS011;2170;48.794;9.182;2023-03-01T06:05:40;29.50;;;19.67;;
4313;SDS011;2170;48.794;9.182;2023-03-01T06:08:08;24.20;;;19.83;;
4313;SDS011;2170;48.794;9.182;2023-03-01T06:10:36;27.70;;;19.33;;
4313;SDS011;2170;48.794;9.182;2023-03-01T06:13:03;27.53;;;21.03;;
4313;SDS011;2170;48.794;9.182;2023-03-01T06:15:31;27.57;;;19.53;;
4313;SDS011;2170;48.794;9.182;2023-03-01T06:17:58;25.20;;;20.47;;
4313;SDS011;2170;48.794;9.182;2023-03-01T06:20:26;25.53;;;19.97;;
4313;SDS011;2170;48.794;9.182;2023-03-01T06:22:53;27.33;;;20.63;;
4313;SDS011;2170;48.794;9.182;2023-03-01T06:25:21;24.77;;;20.57;;
4313;SDS011;2170;48.794;9.182;2023-03-01T06:27:48;26.67;;;19.60;;
4313;SDS011;2170;48.794;9.182;2023-03-01T06:30:18;28.03;;;19.97;;
4313;SDS011;2170;48.794;9.182;2023-03-01T06:32:46;26.70;;;20.00;;
4313;SDS011;2170;48.794;9.182;2023-03-01T06:35:14;26.07;;;19.47;;
4313;SDS011;2170;48.794;9.182;2023-03-01T06:37:42;32.90;;;21.77;;
4313;SDS011;2170;48.794;9.182;2023-03-01T06:40:10;27.80;;;20.17;;
4313;SDS011;2170;48.794;9.182;2023-03-01T06:42:38;28.10;;;21.40;;
4313;SDS011;2170;48.794;9.182;2023-03-01T06:45:06;31.20;;;20.97;;
4313;SDS011;2170;48.794;9.182;2023-03-01T06:47:33;27.30;;;20.47;;
4313;SDS011;2170;48.794;9.182;2023-03-01T06:50:02;29.33;;;20.90;;
4313;SDS011;2170;48.794;9.182;2023-03-01T06:52:29;27.50;;;20.63;;
4313;SDS011;2170;48.794;9.182;2023-03-01T06:54:57;26.30;;;19.93;;
4313;SDS011;2170;48.794;9.182;2023-03-01T06:57:24;31.73;;;21.67;;
4313;SDS011;2170;48.794;9.182;2023-03-01T06:59:51;35.43;;;21.20;;
4313;SDS011;2170;48.794;9.182;2023-03-01T07:02:18;29.33;;;23.07;;
4313;SDS011;2170;48.794;9.182;2023-03-01T07:04:45;30.93;;;21.87;;
4313;SDS011;2170;48.794;9.182;2023-03-01T07:07:14;28.13;;;19.63;;
4313;SDS011;2170;48.794;9.182;2023-03-01T07:09:41;25.93;;;20.60;;
4313;SDS011;2170;48.794;9.182;2023-03-01T07:12:08;27.73;;;20.90;;
4313;SDS011;2170;48.794;9.182;2023-03-01T07:14:35;28.23;;;21.67;;
4313;SDS011;2170;48.794;9.182;2023-03-01T07:17:02;27.90;;;21.90;;
4313;SDS011;2170;48.794;9.182;2023-03-01T07:19:29;26.37;;;20.10;;
4313;SDS011;2170;48.794;9.182;2023-03-01T07:21:56;29.57;;;21.30;;
4313;SDS011;2170;48.794;9.182;2023-03-01T07:24:24;25.57;;;21.47;;
4313;SDS011;2170;48.794;9.182;2023-03-01T07:26:51;29.90;;;21.60;;
4313;SDS011;2170;48.794;9.182;2023-03-01T07:29:19;28.80;;;20.57;;
4313;SDS011;2170;48.794;9.182;2023-03-01T07:31:46;27.27;;;20.80;;
4313;SDS011;2170;48.794;9.182;2023-03-01T07:34:13;26.93;;;20.00;;
4313;SDS011;2170;48.794;9.182;2023-03-01T07:36:40;26.50;;;21.10;;
4313;SDS011;2170;48.794;9.182;2023-03-01T07:39:08;29.07;;;21.00;;
4313;SDS011;2170;48.794;9.182;2023-03-01T07:41:37;28.63;;;21.07;;
4313;SDS011;2170;48.794;9.182;2023-03-01T07:44:04;26.73;;;21.43;;
4313;SDS011;2170;48.794;9.182;2023-03-01T07:46:31;30.90;;;21.77;;
4313;SDS011;2170;48.794;9.182;2023-03-01T07:48:58;32.47;;;21.50;;
4313;SDS011;2170;48.794;9.182;2023-03-01T07:51:25;26.53;;;20.57;;
4313;SDS011;2170;48.794;9.182;2023-03-01T07:53:52;31.03;;;22.23;;
4313;SDS011;2170;48.794;9.182;2023-03-01T07:56:19;28.73;;;21.43;;
4313;SDS011;2170;48.794;9.182;2023-03-01T07:58:48;25.60;;;19.97;;
4313;SDS011;2170;48.794;9.182;2023-03-01T08:01:17;35.27;;;21.80;;
4313;SDS011;2170;48.794;9.182;2023-03-01T08:03:44;30.80;;;21.60;;
4313;SDS011;2170;48.794;9.182;2023-03-01T08:06:12;29.47;;;21.40;;
4313;SDS011;2170;48.794;9.182;2023-03-01T08:08:40;23.83;;;21.23;;
4313;SDS011;2170;48.794;9.182;2023-03-01T08:11:09;26.73;;;20.80;;
4313;SDS011;2170;48.794;9.182;2023-03-01T08:13:37;25.07;;;19.73;;
4313;SDS011;2170;48.794;9.182;2023-03-01T08:16:06;28.60;;;21.20;;
4313;SDS011;2170;48.794;9.182;2023-03-01T08:18:33;27.23;;;20.23;;
4313;SDS011;2170;48.794;9.182;2023-03-01T08:21:01;27.47;;;20.80;;
4313;SDS011;2170;48.794;9.182;2023-03-01T08:23:28;26.00;;;21.47;;
4313;SDS011;2170;48.794;9.182;2023-03-01T08:26:02;30.30;;;20.80;;
4313;SDS011;2170;48.794;9.182;2023-03-01T08:28:29;31.47;;;22.00;;
4313;SDS011;2170;48.794;9.182;2023-03-01T08:30:56;27.73;;;21.30;;
4313;SDS011;2170;48.794;9.182;2023-03-01T08:33:25;25.37;;;21.70;;
4313;SDS011;2170;48.794;9.182;2023-03-01T08:35:52;26.43;;;21.10;;
4313;SDS011;2170;48.794;9.182;2023-03-01T08:38:19;26.50;;;20.60;;
4313;SDS011;2170;48.794;9.182;2023-03-01T08:40:46;27.60;;;21.60;;
4313;SDS011;2170;48.794;9.182;2023-03-01T08:43:13;24.77;;;21.77;;
4313;SDS011;2170;48.794;9.182;2023-03-01T08:45:40;26.40;;;20.87;;
4313;SDS011;2170;48.794;9.182;2023-03-01T08:48:07;22.90;;;19.90;;
4313;SDS011;2170;48.794;9.182;2023-03-01T08:50:35;38.83;;;30.40;;
4313;SDS011;2170;48.794;9.182;2023-03-01T08:53:02;22.43;;;18.90;;
4313;SDS011;2170;48.794;9.182;2023-03-01T08:55:29;27.53;;;20.93;;
4313;SDS011;2170;48.794;9.182;2023-03-01T08:57:56;25.53;;;20.40;;
4313;SDS011;2170;48.794;9.182;2023-03-01T09:00:24;26.90;;;22.00;;
4313;SDS011;2170;48.794;9.182;2023-03-01T09:02:51;26.03;;;21.20;;
4313;SDS011;2170;48.794;9.182;2023-03-01T09:05:18;25.20;;;21.30;;
4313;SDS011;2170;48.794;9.182;2023-03-01T09:07:46;25.20;;;22.13;;
4313;SDS011;2170;48.794;9.182;2023-03-01T09:10:13;22.83;;;19.70;;
4313;SDS011;2170;48.794;9.182;2023-03-01T09:12:41;29.30;;;21.13;;
4313;SDS011;2170;48.794;9.182;2023-03-01T09:15:08;27.70;;;21.83;;
4313;SDS011;2170;48.794;9.182;2023-03-01T09:17:35;26.43;;;20.60;;
4313;SDS011;2170;48.794;9.182;2023-03-01T09:20:02;24.07;;;20.73;;
4313;SDS011;2170;48.794;9.182;2023-03-01T09:22:30;24.17;;;20.37;;
4313;SDS011;2170;48.794;9.182;2023-03-01T09:25:01;22.77;;;20.40;;
4313;SDS011;2170;48.794;9.182;2023-03-01T09:27:28;31.03;;;21.80;;
4313;SDS011;2170;48.794;9.182;2023-03-01T09:29:56;24.90;;;21.53;;
4313;SDS011;2170;48.794;9.182;2023-03-01T09:32:23;26.23;;;22.10;;
4313;SDS011;2170;48.794;9.182;2023-03-01T09:34:52;26.73;;;22.47;;
4313;SDS011;2170;48.794;9.182;2023-03-01T09:37:36;23.83;;;19.80;;
4313;SDS011;2170;48.794;9.182;2023-03-01T09:40:08;24.07;;;21.10;;
4313;SDS011;2170;48.794;9.182;2023-03-01T09:42:45;25.40;;;21.53;;
4313;SDS011;2170;48.794;9.182;2023-03-01T09:45:15;25.70;;;21.70;;
4313;SDS011;2170;48.794;9.182;2023-03-01T09:47:49;24.43;;;21.07;;
4313;SDS011;2170;48.794;9.182;2023-03-01T09:50:16;25.93;;;20.57;;
4313;SDS011;2170;48.794;9.182;2023-03-01T09:52:45;25.57;;;21.33;;
4313;SDS011;2170;48.794;9.182;2023-03-01T09:55:15;28.83;;;23.60;;
4313;SDS011;2170;48.794;9.182;2023-03-01T09:57:47;24.27;;;21.23;;
4313;SDS011;2170;48.794;9.182;2023-03-01T10:00:18;25.70;;;22.03;;
4313;SDS011;2170;48.794;9.182;2023-03-01T10:02:47;23.87;;;21.03;;
4313;SDS011;2170;48.794;9.182;2023-03-01T10:05:26;25.90;;;21.40;;
4313;SDS011;2170;48.794;9.182;2023-03-01T10:07:55;23.80;;;21.10;;
4313;SDS011;2170;48.794;9.182;2023-03-01T10:10:33;24.23;;;21.23;;
4313;SDS011;2170;48.794;9.182;2023-03-01T10:13:01;24.70;;;21.80;;
4313;SDS011;2170;48.794;9.182;2023-03-01T10:15:39;23.70;;;20.30;;
4313;SDS011;2170;48.794;9.182;2023-03-01T10:18:09;24.30;;;21.33;;
4313;SDS011;2170;48.794;9.182;2023-03-01T10:20:42;21.93;;;19.30;;
4313;SDS011;2170;48.794;9.182;2023-03-01T10:23:10;25.93;;;20.77;;
4313;SDS011;2170;48.794;9.182;2023-03-01T10:25:44;22.37;;;19.97;;
4313;SDS011;2170;48.794;9.182;2023-03-01T10:28:16;23.00;;;19.27;;
4313;SDS011;2170;48.794;9.182;2023-03-01T10:30:44;21.93;;;19.60;;
4313;SDS011;2170;48.794;9.182;2023-03-01T10:33:13;21.87;;;19.47;;
4313;SDS011;2170;48.794;9.182;2023-03-01T10:35:42;25.00;;;19.70;;
4313;SDS011;2170;48.794;9.182;2023-03-01T10:38:09;24.53;;;21.53;;
4313;SDS011;2170;48.794;9.182;2023-03-01T10:40:49;22.43;;;20.10;;
4313;SDS011;2170;48.794;9.182;2023-03-01T10:43:18;23.00;;;20.60;;
4313;SDS011;2170;48.794;9.182;2023-03-01T10:45:46;21.00;;;18.80;;
4313;SDS011;2170;48.794;9.182;2023-03-01T10:48:14;22.30;;;19.63;;
4313;SDS011;2170;48.794;9.182;2023-03-01T10:50:41;22.00;;;19.70;;
4313;SDS011;2170;48.794;9.182;2023-03-01T10:53:19;21.93;;;19.63;;
4313;SDS011;2170;48.794;9.182;2023-03-01T10:55:48;21.80;;;18.63;;
4313;SDS011;2170;48.794;9.182;2023-03-01T10:58:24;21.23;;;18.93;;
4313;SDS011;2170;48.794;9.182;2023-03-01T11:00:52;21.43;;;18.30;;
4313;SDS011;2170;48.794;9.182;2023-03-01T11:03:21;21.23;;;19.13;;
4313;SDS011;2170;48.794;9.182;2023-03-01T11:05:57;21.17;;;19.00;;
4313;SDS011;2170;48.794;9.182;2023-03-01T11:08:34;22.70;;;20.20;;
4313;SDS011;2170;48.794;9.182;2023-03-01T11:13:52;21.83;;;19.53;;
4313;SDS011;2170;48.794;9.182;2023-03-01T11:16:24;22.57;;;20.17;;
4313;SDS011;2170;48.794;9.182;2023-03-01T11:18:58;23.23;;;20.77;;
4313;SDS011;2170;48.794;9.182;2023-03-01T11:21:26;21.30;;;19.20;;
4313;SDS011;2170;48.794;9.182;2023-03-01T11:23:54;21.27;;;19.07;;
4313;SDS011;2170;48.794;9.182;2023-03-01T11:26:21;22.13;;;19.83;;
4313;SDS011;2170;48.794;9.182;2023-03-01T11:28:49;21.23;;;18.97;;
4313;SDS011;2170;48.794;9.182;2023-03-01T11:31:19;22.50;;;20.13;;
4313;SDS011;2170;48.794;9.182;2023-03-01T11:33:47;23.40;;;20.03;;
4313;SDS011;2170;48.794;9.182;2023-03-01T11:36:18;31.53;;;24.77;;
4313;SDS011;2170;48.794;9.182;2023-03-01T11:38:46;20.90;;;18.90;;
4313;SDS011;2170;48.794;9.182;2023-03-01T11:41:14;21.10;;;19.03;;
4313;SDS011;2170;48.794;9.182;2023-03-01T11:43:45;22.10;;;19.80;;
4313;SDS011;2170;48.794;9.182;2023-03-01T11:49:03;23.90;;;19.17;;
4313;SDS011;2170;48.794;9.182;2023-03-01T11:51:38;20.90;;;18.70;;
4313;SDS011;2170;48.794;9.182;2023-03-01T11:54:09;22.40;;;20.30;;
4313;SDS011;2170;48.794;9.182;2023-03-01T11:56:40;23.50;;;19.50;;
4313;SDS011;2170;48.794;9.182;2023-03-01T11:59:20;20.73;;;18.63;;
4313;SDS011;2170;48.794;9.182;2023-03-01T12:01:55;20.63;;;18.53;;
4313;SDS011;2170;48.794;9.182;2023-03-01T12:04:41;20.37;;;18.20;;
4313;SDS011;2170;48.794;9.182;2023-03-01T12:07:14;19.90;;;17.80;;
4313;SDS011;2170;48.794;9.182;2023-03-01T12:09:51;20.53;;;18.30;;
4313;SDS011;2170;48.794;9.182;2023-03-01T12:12:26;21.80;;;19.33;;
4313;SDS011;2170;48.794;9.182;2023-03-01T12:14:55;19.73;;;17.73;;
4313;SDS011;2170;48.794;9.182;2023-03-01T12:17:32;20.50;;;17.97;;
4313;SDS011;2170;48.794;9.182;2023-03-01T12:20:11;18.10;;;16.30;;
4313;SDS011;2170;48.794;9.182;2023-03-01T12:22:44;20.17;;;18.07;;
4313;SDS011;2170;48.794;9.182;2023-03-01T12:25:16;18.10;;;16.20;;
4313;SDS011;2170;48.794;9.182;2023-03-01T12:27:53;20.07;;;18.03;;
4313;SDS011;2170;48.794;9.182;2023-03-01T12:30:26;18.20;;;16.20;;
4313;SDS011;2170;48.794;9.182;2023-03-01T12:33:00;18.90;;;17.00;;
4313;SDS011;2170;48.794;9.182;2023-03-01T12:35:41;19.77;;;17.67;;
4313;SDS011;2170;48.794;9.182;2023-03-01T12:38:16;19.13;;;17.13;;
4313;SDS011;2170;48.794;9.182;2023-03-01T12:43:33;18.40;;;16.60;;
4313;SDS011;2170;48.794;9.182;2023-03-01T12:46:09;19.10;;;17.20;;
4313;SDS011;2170;48.794;9.182;2023-03-01T12:48:40;17.63;;;15.83;;
4313;SDS011;2170;48.794;9.182;2023-03-01T12:51:12;16.77;;;14.97;;
4313;SDS011;2170;48.794;9.182;2023-03-01T12:53:41;19.03;;;17.03;;
4313;SDS011;2170;48.794;9.182;2023-03-01T12:56:10;18.80;;;16.83;;
4313;SDS011;2170;48.794;9.182;2023-03-01T12:58:39;18.73;;;16.03;;
4313;SDS011;2170;48.794;9.182;2023-03-01T13:01:13;18.63;;;16.83;;
4313;SDS011;2170;48.794;9.182;2023-03-01T13:03:48;16.47;;;14.73;;
4313;SDS011;2170;48.794;9.182;2023-03-01T13:06:21;17.13;;;15.43;;
4313;SDS011;2170;48.794;9.182;2023-03-01T13:08:53;18.13;;;16.23;;
4313;SDS011;2170;48.794;9.182;2023-03-01T13:11:23;17.20;;;15.60;;
4313;SDS011;2170;48.794;9.182;2023-03-01T13:13:50;17.10;;;15.33;;
4313;SDS011;2170;48.794;9.182;2023-03-01T13:16:20;16.83;;;15.07;;
4313;SDS011;2170;48.794;9.182;2023-03-01T13:18:48;16.87;;;15.20;;
4313;SDS011;2170;48.794;9.182;2023-03-01T13:21:20;16.80;;;15.07;;
4313;SDS011;2170;48.794;9.182;2023-03-01T13:23:55;17.90;;;16.10;;
4313;SDS011;2170;48.794;9.182;2023-03-01T13:26:22;20.40;;;18.30;;
4313;SDS011;2170;48.794;9.182;2023-03-01T13:28:52;18.03;;;16.23;;
4313;SDS011;2170;48.794;9.182;2023-03-01T13:34:09;19.03;;;17.07;;
4313;SDS011;2170;48.794;9.182;2023-03-01T13:37:08;18.07;;;16.37;;
4313;SDS011;2170;48.794;9.182;2023-03-01T13:39:38;19.07;;;17.07;;
4313;SDS011;2170;48.794;9.182;2023-03-01T13:44:47;17.90;;;16.20;;
4313;SDS011;2170;48.794;9.182;2023-03-01T13:47:16;21.57;;;16.43;;
4313;SDS011;2170;48.794;9.182;2023-03-01T13:49:46;22.30;;;19.90;;
4313;SDS011;2170;48.794;9.182;2023-03-01T13:52:35;19.90;;;17.83;;
4313;SDS011;2170;48.794;9.182;2023-03-01T13:55:03;24.83;;;19.23;;
4313;SDS011;2170;48.794;9.182;2023-03-01T13:57:32;21.57;;;19.37;;
4313;SDS011;2170;48.794;9.182;2023-03-01T13:59:59;21.80;;;19.50;;
4313;SDS011;2170;48.794;9.182;2023-03-01T14:02:27;21.03;;;18.83;;
4313;SDS011;2170;48.794;9.182;2023-03-01T14:04:58;19.97;;;18.07;;
4313;SDS011;2170;48.794;9.182;2023-03-01T14:07:27;20.90;;;18.87;;
4313;SDS011;2170;48.794;9.182;2023-03-01T14:09:56;21.70;;;19.47;;
4313;SDS011;2170;48.794;9.182;2023-03-01T14:12:32;22.57;;;19.00;;
4313;SDS011;2170;48.794;9.182;2023-03-01T14:15:03;22.60;;;20.10;;
4313;SDS011;2170;48.794;9.182;2023-03-01T14:17:45;20.73;;;18.50;;
4313;SDS011;2170;48.794;9.182;2023-03-01T14:20:16;22.67;;;20.27;;
4313;SDS011;2170;48.794;9.182;2023-03-01T14:22:46;21.57;;;19.47;;
4313;SDS011;2170;48.794;9.182;2023-03-01T14:25:19;21.63;;;19.33;;
4313;SDS011;2170;48.794;9.182;2023-03-01T14:27:51;22.60;;;20.27;;
4313;SDS011;2170;48.794;9.182;2023-03-01T14:30:19;22.87;;;20.53;;
4313;SDS011;2170;48.794;9.182;2023-03-01T14:32:52;22.23;;;19.90;;
4313;SDS011;2170;48.794;9.182;2023-03-01T14:35:20;23.10;;;20.53;;
4313;SDS011;2170;48.794;9.182;2023-03-01T14:37:49;21.57;;;19.30;;
4313;SDS011;2170;48.794;9.182;2023-03-01T14:43:01;20.90;;;18.60;;
4313;SDS011;2170;48.794;9.182;2023-03-01T14:45:34;20.93;;;18.43;;
4313;SDS011;2170;48.794;9.182;2023-03-01T14:48:02;21.40;;;19.10;;
4313;SDS011;2170;48.794;9.182;2023-03-01T14:50:30;21.83;;;18.87;;
4313;SDS011;2170;48.794;9.182;2023-03-01T14:52:59;21.70;;;19.33;;
4313;SDS011;2170;48.794;9.182;2023-03-01T14:55:27;24.47;;;20.53;;
4313;SDS011;2170;48.794;9.182;2023-03-01T14:57:55;20.87;;;18.77;;
4313;SDS011;2170;48.794;9.182;2023-03-01T15:00:24;21.90;;;19.50;;
4313;SDS011;2170;48.794;9.182;2023-03-01T15:02:53;21.00;;;18.67;;
4313;SDS011;2170;48.794;9.182;2023-03-01T15:05:22;22.80;;;19.07;;
4313;SDS011;2170;48.794;9.182;2023-03-01T15:07:49;22.37;;;19.97;;
4313;SDS011;2170;48.794;9.182;2023-03-01T15:10:20;25.17;;;19.30;;
4313;SDS011;2170;48.794;9.182;2023-03-01T15:12:48;21.20;;;18.83;;
4313;SDS011;2170;48.794;9.182;2023-03-01T15:15:31;21.57;;;18.87;;
4313;SDS011;2170;48.794;9.182;2023-03-01T15:17:59;23.43;;;19.00;;